Time;durP1;ratioP1;P1;durP2;ratioP2;P2;SDS_P1;SDS_P2;PMS_P1;PMS_P2;Temp;Humidity;BMP_temperature;BMP_pressure;BME280_temperature;BME280_humidity;BME280_pressure;Samples;Min_cycle;Max_cycle;Signal;HPM_P1;HPM_P2
2021/12/23 00:02:13;;;;;;;16.73;9.23;;;;;;;;;;5050877;28;20838;-69
2021/12/23 00:04:40;;;;;;;16.93;8.63;;;;;;;;;;5050650;28;20450;-69
2021/12/23 00:07:08;;;;;;;16.13;9.97;;;;;;;;;;5050934;28;20454;-69
2021/12/23 00:10:02;;;;;;;17.10;10.63;;;;;;;;;;5050996;28;20456;-69
2021/12/23 00:12:30;;;;;;;19.00;8.90;;;;;;;;;;5050841;28;20470;-69
2021/12/23 00:14:58;;;;;;;16.33;8.70;;;;;;;;;;5050445;28;20505;-69
2021/12/23 00:17:39;;;;;;;14.63;8.70;;;;;;;;;;5050910;28;20495;-69
2021/12/23 00:25:33;;;;;;;15.17;9.20;;;;;;;;;;5050847;28;20433;-68
2021/12/23 00:28:02;;;;;;;13.97;8.70;;;;;;;;;;5050154;28;20490;-69
2021/12/23 00:30:29;;;;;;;13.83;8.17;;;;;;;;;;5050596;28;20512;-69
2021/12/23 00:32:57;;;;;;;14.63;8.63;;;;;;;;;;5050296;28;20477;-70
2021/12/23 00:35:25;;;;;;;15.53;8.10;;;;;;;;;;5050341;28;20636;-69
2021/12/23 00:37:58;;;;;;;19.63;8.77;;;;;;;;;;5050374;28;20489;-69
2021/12/23 00:40:26;;;;;;;15.07;8.83;;;;;;;;;;5050427;28;20466;-69
2021/12/23 00:42:53;;;;;;;14.70;8.63;;;;;;;;;;5050064;28;20462;-69
2021/12/23 00:45:22;;;;;;;16.27;9.00;;;;;;;;;;5050241;28;20459;-69
2021/12/23 00:47:49;;;;;;;14.83;8.10;;;;;;;;;;5050126;28;20451;-69
2021/12/23 00:50:17;;;;;;;19.33;11.40;;;;;;;;;;5050171;28;20519;-69
2021/12/23 00:52:45;;;;;;;26.60;15.57;;;;;;;;;;5050247;28;20454;-69
2021/12/23 00:55:13;;;;;;;23.50;13.67;;;;;;;;;;5049911;28;20450;-70
2021/12/23 00:57:41;;;;;;;29.10;15.20;;;;;;;;;;5049839;28;20825;-70
2021/12/23 01:00:09;;;;;;;29.80;15.90;;;;;;;;;;5050057;28;20475;-69
2021/12/23 01:02:43;;;;;;;28.53;14.20;;;;;;;;;;5049922;28;20459;-70
2021/12/23 01:05:11;;;;;;;19.87;12.67;;;;;;;;;;5049776;28;20472;-70
2021/12/23 01:07:38;;;;;;;24.93;14.20;;;;;;;;;;5050131;28;20492;-69
2021/12/23 01:10:05;;;;;;;20.67;13.17;;;;;;;;;;5049984;28;20515;-69
2021/12/23 01:12:39;;;;;;;28.83;13.40;;;;;;;;;;5049541;28;20474;-69
2021/12/23 01:15:15;;;;;;;23.23;12.60;;;;;;;;;;5049855;28;20453;-69
2021/12/23 01:17:55;;;;;;;22.57;11.90;;;;;;;;;;5049877;28;20568;-70
2021/12/23 01:20:27;;;;;;;19.90;11.30;;;;;;;;;;5049555;28;20481;-69
2021/12/23 01:22:55;;;;;;;24.90;11.67;;;;;;;;;;5049628;28;20508;-69
2021/12/23 01:25:23;;;;;;;24.17;10.40;;;;;;;;;;5049812;28;20460;-69
2021/12/23 01:27:50;;;;;;;18.43;10.43;;;;;;;;;;5049284;28;20490;-69
2021/12/23 01:30:18;;;;;;;16.73;10.40;;;;;;;;;;5049645;28;20458;-69
2021/12/23 01:32:47;;;;;;;19.17;10.97;;;;;;;;;;5049577;28;20465;-69
2021/12/23 01:35:15;;;;;;;17.43;10.17;;;;;;;;;;5049323;28;20446;-69
2021/12/23 01:37:43;;;;;;;19.07;10.37;;;;;;;;;;5049083;28;20489;-69
2021/12/23 01:40:11;;;;;;;23.23;12.03;;;;;;;;;;5049504;28;20531;-69
2021/12/23 01:42:39;;;;;;;17.10;9.00;;;;;;;;;;5049424;28;20454;-69
2021/12/23 01:45:10;;;;;;;20.10;9.40;;;;;;;;;;5048884;28;20880;-69
2021/12/23 01:47:37;;;;;;;17.57;8.73;;;;;;;;;;5049089;28;20456;-69
2021/12/23 01:50:06;;;;;;;17.37;8.70;;;;;;;;;;5049199;28;20481;-69
2021/12/23 01:52:34;;;;;;;14.33;8.83;;;;;;;;;;5049559;28;20457;-69
2021/12/23 01:55:02;;;;;;;12.53;8.00;;;;;;;;;;5048704;28;20454;-69
2021/12/23 01:57:31;;;;;;;19.27;8.60;;;;;;;;;;5049030;28;20512;-69
2021/12/23 01:59:59;;;;;;;18.60;8.20;;;;;;;;;;5049307;28;20530;-69
2021/12/23 02:02:27;;;;;;;16.43;8.33;;;;;;;;;;5049080;28;20457;-69
2021/12/23 02:04:54;;;;;;;15.43;8.13;;;;;;;;;;5048996;28;20465;-69
2021/12/23 02:07:22;;;;;;;18.37;8.80;;;;;;;;;;5049243;28;20458;-69
2021/12/23 02:09:50;;;;;;;10.23;6.80;;;;;;;;;;5049256;28;20540;-68
2021/12/23 02:12:18;;;;;;;12.73;6.50;;;;;;;;;;5049052;28;20454;-68
2021/12/23 02:14:45;;;;;;;11.53;5.73;;;;;;;;;;5049025;28;20461;-69
2021/12/23 02:17:12;;;;;;;13.73;7.60;;;;;;;;;;5048961;28;20861;-69
2021/12/23 02:19:39;;;;;;;11.43;7.77;;;;;;;;;;5048760;28;20982;-69
2021/12/23 02:22:08;;;;;;;21.50;12.47;;;;;;;;;;5049102;28;20564;-68
2021/12/23 02:24:36;;;;;;;26.00;12.80;;;;;;;;;;5049039;28;20934;-68
2021/12/23 02:27:03;;;;;;;24.00;13.90;;;;;;;;;;5049010;28;20445;-69
2021/12/23 02:29:30;;;;;;;28.00;14.10;;;;;;;;;;5048577;28;20477;-68
2021/12/23 02:31:58;;;;;;;24.40;15.97;;;;;;;;;;5049096;28;20849;-69
2021/12/23 02:34:25;;;;;;;35.30;15.00;;;;;;;;;;5048550;28;20925;-69
2021/12/23 02:36:53;;;;;;;29.53;15.20;;;;;;;;;;5048810;28;20453;-68
2021/12/23 02:39:23;;;;;;;25.73;14.83;;;;;;;;;;5048704;28;20493;-68
2021/12/23 02:41:50;;;;;;;27.80;15.00;;;;;;;;;;5048505;28;20930;-69
2021/12/23 02:44:18;;;;;;;25.83;16.13;;;;;;;;;;5048695;28;20454;-68
2021/12/23 02:46:45;;;;;;;26.00;13.80;;;;;;;;;;5048954;28;20813;-68
2021/12/23 02:49:13;;;;;;;18.90;12.20;;;;;;;;;;5048549;28;20446;-68
2021/12/23 02:51:40;;;;;;;22.80;14.13;;;;;;;;;;5048440;28;20457;-68
2021/12/23 02:54:08;;;;;;;20.80;13.90;;;;;;;;;;5048708;28;20456;-68
2021/12/23 02:56:36;;;;;;;23.40;13.37;;;;;;;;;;5048589;28;20523;-68
2021/12/23 02:59:04;;;;;;;28.10;13.90;;;;;;;;;;5048396;28;20489;-68
2021/12/23 03:01:31;;;;;;;19.60;13.47;;;;;;;;;;5048764;28;20466;-69
2021/12/23 03:03:59;;;;;;;23.23;13.70;;;;;;;;;;5048556;28;20453;-68
2021/12/23 03:06:26;;;;;;;21.47;13.07;;;;;;;;;;5050212;28;20472;-69
2021/12/23 03:08:56;;;;;;;19.10;12.00;;;;;;;;;;5051975;28;20453;-68
2021/12/23 03:11:25;;;;;;;20.13;11.33;;;;;;;;;;5051860;28;20571;-68
2021/12/23 03:13:54;;;;;;;27.73;13.47;;;;;;;;;;5052327;28;20453;-69
2021/12/23 03:16:22;;;;;;;23.23;12.93;;;;;;;;;;5052305;28;20446;-68
2021/12/23 03:18:50;;;;;;;21.60;12.23;;;;;;;;;;5051930;28;20485;-68
2021/12/23 03:21:17;;;;;;;18.70;11.40;;;;;;;;;;5052279;28;20972;-68
2021/12/23 03:23:45;;;;;;;16.20;10.80;;;;;;;;;;5052087;28;20453;-68
2021/12/23 03:26:12;;;;;;;19.60;10.33;;;;;;;;;;5051796;28;20514;-69
2021/12/23 03:28:40;;;;;;;19.33;10.23;;;;;;;;;;5051275;28;20478;-69
2021/12/23 03:31:08;;;;;;;16.63;9.73;;;;;;;;;;5051309;28;20466;-69
2021/12/23 03:33:36;;;;;;;15.60;8.83;;;;;;;;;;5051157;28;20454;-69
2021/12/23 03:36:04;;;;;;;18.27;8.90;;;;;;;;;;5051600;28;20814;-69
2021/12/23 03:38:31;;;;;;;19.10;8.70;;;;;;;;;;5051571;28;20488;-68
2021/12/23 03:40:59;;;;;;;12.90;7.57;;;;;;;;;;5051357;28;21035;-68
2021/12/23 03:43:28;;;;;;;13.40;7.80;;;;;;;;;;5051715;28;20462;-68
2021/12/23 03:45:55;;;;;;;13.27;8.30;;;;;;;;;;5051436;28;20456;-68
2021/12/23 03:48:24;;;;;;;14.73;6.97;;;;;;;;;;5051528;28;21001;-68
2021/12/23 03:50:52;;;;;;;12.90;7.20;;;;;;;;;;5051234;28;20481;-68
2021/12/23 03:53:20;;;;;;;12.80;6.90;;;;;;;;;;5051396;28;20469;-68
2021/12/23 03:59:59;;;;;;;11.27;6.47;;;;;;;;;;5086286;27;20709;-70
2021/12/23 04:02:27;;;;;;;12.33;6.43;;;;;;;;;;5085218;28;20450;-70
2021/12/23 04:04:54;;;;;;;12.37;6.63;;;;;;;;;;5086958;28;20477;-70
2021/12/23 04:07:21;;;;;;;14.63;6.60;;;;;;;;;;5086611;28;20452;-69
2021/12/23 04:09:50;;;;;;;13.20;7.43;;;;;;;;;;5086369;28;20564;-70
2021/12/23 04:12:18;;;;;;;11.70;7.30;;;;;;;;;;5086457;28;20473;-69
2021/12/23 04:14:45;;;;;;;10.27;6.40;;;;;;;;;;5086804;28;20500;-69
2021/12/23 04:17:14;;;;;;;16.60;6.73;;;;;;;;;;5086495;28;20500;-68
2021/12/23 04:19:43;;;;;;;10.70;6.57;;;;;;;;;;5086149;28;20468;-69
2021/12/23 04:22:11;;;;;;;11.77;5.80;;;;;;;;;;5086475;28;20517;-68
2021/12/23 04:24:38;;;;;;;12.20;7.33;;;;;;;;;;5086534;28;20457;-69
2021/12/23 04:27:06;;;;;;;13.73;7.37;;;;;;;;;;5086488;28;20452;-69
2021/12/23 04:29:33;;;;;;;12.20;6.50;;;;;;;;;;5086451;28;20565;-68
2021/12/23 04:32:01;;;;;;;11.27;6.57;;;;;;;;;;5086434;28;20451;-69
2021/12/23 04:34:29;;;;;;;13.63;5.97;;;;;;;;;;5086427;28;20460;-69
2021/12/23 04:36:57;;;;;;;11.67;7.63;;;;;;;;;;5086175;28;20506;-69
2021/12/23 04:39:24;;;;;;;14.70;7.03;;;;;;;;;;5086127;28;20533;-69
2021/12/23 04:41:51;;;;;;;21.03;7.60;;;;;;;;;;5085817;28;20494;-68
2021/12/23 04:44:19;;;;;;;10.17;6.53;;;;;;;;;;5086132;28;20455;-69
2021/12/23 04:46:46;;;;;;;11.80;6.33;;;;;;;;;;5086097;28;20881;-69
2021/12/23 04:49:13;;;;;;;12.10;6.43;;;;;;;;;;5085640;28;21037;-69
2021/12/23 04:51:42;;;;;;;13.47;6.63;;;;;;;;;;5085931;28;20730;-69
2021/12/23 04:54:09;;;;;;;12.97;6.37;;;;;;;;;;5085888;28;20471;-68
2021/12/23 04:56:38;;;;;;;12.77;5.73;;;;;;;;;;5067458;28;20456;-69
2021/12/23 04:59:05;;;;;;;9.70;5.57;;;;;;;;;;5064689;28;20625;-69
2021/12/23 05:01:33;;;;;;;9.87;5.80;;;;;;;;;;5065255;28;20453;-69
2021/12/23 05:04:01;;;;;;;10.07;5.63;;;;;;;;;;5065542;28;20455;-69
2021/12/23 05:06:29;;;;;;;9.10;5.60;;;;;;;;;;5065206;28;20460;-68
2021/12/23 05:08:57;;;;;;;12.37;5.60;;;;;;;;;;5065214;28;20480;-69
2021/12/23 05:11:25;;;;;;;11.80;5.93;;;;;;;;;;5051836;28;20956;-69
2021/12/23 05:13:53;;;;;;;17.40;7.23;;;;;;;;;;5051753;28;20989;-69
2021/12/23 05:18:42;;;;;;;13.00;5.67;;;;;;;;;;5086254;27;20616;-69
2021/12/23 05:21:09;;;;;;;13.30;7.47;;;;;;;;;;5086841;28;20852;-69
2021/12/23 05:23:37;;;;;;;11.40;5.30;;;;;;;;;;5086840;28;20451;-70
2021/12/23 05:26:08;;;;;;;12.40;5.53;;;;;;;;;;5086967;28;20900;-68
2021/12/23 05:28:35;;;;;;;14.13;6.17;;;;;;;;;;5086598;28;20483;-70
2021/12/23 05:31:02;;;;;;;10.50;5.57;;;;;;;;;;5086472;28;20521;-69
2021/12/23 05:33:30;;;;;;;11.40;6.60;;;;;;;;;;5086536;28;20842;-68
2021/12/23 05:35:58;;;;;;;11.57;5.40;;;;;;;;;;5086743;28;20452;-68
2021/12/23 05:38:26;;;;;;;8.20;5.50;;;;;;;;;;5086157;28;20444;-68
2021/12/23 05:40:53;;;;;;;13.63;6.23;;;;;;;;;;5086463;28;20578;-69
2021/12/23 05:43:20;;;;;;;11.07;5.70;;;;;;;;;;5086337;28;20463;-69
2021/12/23 05:45:48;;;;;;;11.90;6.20;;;;;;;;;;5086287;28;20461;-72
2021/12/23 05:48:15;;;;;;;11.27;5.97;;;;;;;;;;5086302;28;20549;-71
2021/12/23 05:50:42;;;;;;;9.90;5.50;;;;;;;;;;5086246;28;20540;-71
2021/12/23 05:53:11;;;;;;;11.47;7.93;;;;;;;;;;5086264;28;20452;-71
2021/12/23 05:55:38;;;;;;;13.60;7.37;;;;;;;;;;5074879;28;20445;-71
2021/12/23 05:58:06;;;;;;;15.40;8.70;;;;;;;;;;5065586;28;20475;-70
2021/12/23 06:00:34;;;;;;;12.60;7.77;;;;;;;;;;5065872;28;20977;-70
2021/12/23 06:03:02;;;;;;;23.50;9.00;;;;;;;;;;5065752;28;20461;-71
2021/12/23 06:05:29;;;;;;;14.90;8.80;;;;;;;;;;5065991;28;20456;-71
2021/12/23 06:07:57;;;;;;;20.40;9.03;;;;;;;;;;5065727;28;20495;-71
2021/12/23 06:10:25;;;;;;;21.10;8.70;;;;;;;;;;5065536;28;20525;-69
2021/12/23 06:12:53;;;;;;;12.03;7.70;;;;;;;;;;5065383;28;20981;-69
2021/12/23 06:15:20;;;;;;;13.70;8.33;;;;;;;;;;5065442;28;20903;-69
2021/12/23 06:17:47;;;;;;;15.07;8.80;;;;;;;;;;5065248;28;20543;-71
2021/12/23 06:20:15;;;;;;;14.47;8.47;;;;;;;;;;5065363;28;20469;-71
2021/12/23 06:22:42;;;;;;;15.43;8.67;;;;;;;;;;5065155;28;20574;-68
2021/12/23 06:25:10;;;;;;;17.60;9.17;;;;;;;;;;5065071;28;20456;-68
2021/12/23 06:27:39;;;;;;;10.73;6.40;;;;;;;;;;5064804;28;20492;-69
2021/12/23 06:30:15;;;;;;;13.83;7.70;;;;;;;;;;5051661;28;20464;-69
2021/12/23 06:32:42;;;;;;;13.87;6.73;;;;;;;;;;5051615;28;20953;-69
2021/12/23 06:35:10;;;;;;;10.47;7.90;;;;;;;;;;5052030;28;20509;-69
2021/12/23 06:37:37;;;;;;;14.40;6.63;;;;;;;;;;5051744;28;20868;-69
2021/12/23 06:40:05;;;;;;;14.23;7.70;;;;;;;;;;5051364;28;20984;-68
2021/12/23 06:42:32;;;;;;;15.03;7.23;;;;;;;;;;5051627;28;20945;-68
2021/12/23 06:45:01;;;;;;;11.13;5.90;;;;;;;;;;5051586;28;20461;-68
2021/12/23 06:47:28;;;;;;;17.90;7.87;;;;;;;;;;5051546;28;20900;-67
2021/12/23 06:49:55;;;;;;;14.80;7.40;;;;;;;;;;5051336;28;20981;-67
2021/12/23 06:52:23;;;;;;;14.67;7.73;;;;;;;;;;5051365;28;20973;-67
2021/12/23 06:54:53;;;;;;;13.60;7.80;;;;;;;;;;5047953;28;20447;-68
2021/12/23 06:57:20;;;;;;;16.93;8.10;;;;;;;;;;5031680;28;20575;-68
2021/12/23 06:59:48;;;;;;;16.03;8.00;;;;;;;;;;5031236;28;20473;-68
2021/12/23 07:02:17;;;;;;;17.10;8.87;;;;;;;;;;5031272;28;20459;-68
2021/12/23 07:04:45;;;;;;;15.83;8.60;;;;;;;;;;5031046;28;20463;-68
2021/12/23 07:07:13;;;;;;;14.30;7.73;;;;;;;;;;5030802;28;21029;-70
2021/12/23 07:09:42;;;;;;;13.03;8.03;;;;;;;;;;5031253;28;20483;-69
2021/12/23 07:12:11;;;;;;;16.73;8.73;;;;;;;;;;5031519;28;20827;-68
2021/12/23 07:14:40;;;;;;;18.90;9.40;;;;;;;;;;5030763;28;20470;-68
2021/12/23 07:17:07;;;;;;;17.37;9.50;;;;;;;;;;5031130;28;20487;-71
2021/12/23 07:19:36;;;;;;;16.70;10.17;;;;;;;;;;5031370;28;20502;-69
2021/12/23 07:22:04;;;;;;;15.60;9.30;;;;;;;;;;5031022;28;20947;-68
2021/12/23 07:24:31;;;;;;;15.70;9.83;;;;;;;;;;5031013;28;20505;-68
2021/12/23 07:26:59;;;;;;;18.20;12.13;;;;;;;;;;5030425;28;21037;-68
2021/12/23 07:29:26;;;;;;;17.67;9.87;;;;;;;;;;5030358;28;21039;-68
2021/12/23 07:31:53;;;;;;;14.50;9.27;;;;;;;;;;5030729;28;21218;-69
2021/12/23 07:34:21;;;;;;;15.93;10.30;;;;;;;;;;5030892;28;20461;-68
2021/12/23 07:36:49;;;;;;;16.13;10.23;;;;;;;;;;5030742;28;20939;-70
2021/12/23 07:39:17;;;;;;;22.13;10.47;;;;;;;;;;5030770;28;20497;-70
2021/12/23 07:41:44;;;;;;;16.07;10.80;;;;;;;;;;5029393;28;20987;-71
2021/12/23 07:44:20;;;;;;;15.23;10.50;;;;;;;;;;5030571;28;20458;-70
2021/12/23 07:46:48;;;;;;;16.87;10.00;;;;;;;;;;5030864;28;20908;-71
2021/12/23 07:49:16;;;;;;;18.50;9.17;;;;;;;;;;5030393;28;20494;-70
2021/12/23 07:51:43;;;;;;;19.37;10.40;;;;;;;;;;5030341;28;20455;-70
2021/12/23 07:54:12;;;;;;;17.43;11.10;;;;;;;;;;5030214;28;20459;-70
2021/12/23 07:56:39;;;;;;;20.63;11.03;;;;;;;;;;5030189;28;20460;-70
2021/12/23 07:59:07;;;;;;;23.47;14.50;;;;;;;;;;5029971;28;20444;-70
2021/12/23 08:01:34;;;;;;;22.73;14.00;;;;;;;;;;5030302;28;20455;-69
2021/12/23 08:04:01;;;;;;;22.23;13.87;;;;;;;;;;5030376;28;20465;-70
2021/12/23 08:06:29;;;;;;;18.43;11.43;;;;;;;;;;5030221;28;20459;-70
2021/12/23 08:08:56;;;;;;;20.53;11.27;;;;;;;;;;5030090;28;21020;-69
2021/12/23 08:11:24;;;;;;;16.90;10.30;;;;;;;;;;5029828;28;20986;-70
2021/12/23 08:13:52;;;;;;;23.33;12.00;;;;;;;;;;5029940;28;20454;-70
2021/12/23 08:16:19;;;;;;;21.83;13.00;;;;;;;;;;5029928;28;20601;-69
2021/12/23 08:18:46;;;;;;;26.17;13.20;;;;;;;;;;5030002;28;20454;-70
2021/12/23 08:21:14;;;;;;;25.63;14.50;;;;;;;;;;5029884;28;20549;-70
2021/12/23 08:23:41;;;;;;;22.17;13.63;;;;;;;;;;5042719;28;20441;-70
2021/12/23 08:26:15;;;;;;;23.70;13.37;;;;;;;;;;5049640;28;20453;-70
2021/12/23 08:28:43;;;;;;;24.63;15.30;;;;;;;;;;5049715;28;20485;-71
2021/12/23 08:31:11;;;;;;;26.17;13.97;;;;;;;;;;5049284;28;20493;-70
2021/12/23 08:33:39;;;;;;;22.97;12.80;;;;;;;;;;5049761;28;20522;-70
2021/12/23 08:36:06;;;;;;;22.57;13.93;;;;;;;;;;5049626;28;20457;-70
2021/12/23 08:38:34;;;;;;;32.43;18.80;;;;;;;;;;5049485;28;20512;-69
2021/12/23 08:41:01;;;;;;;25.70;17.83;;;;;;;;;;5049622;28;20474;-69
2021/12/23 08:43:29;;;;;;;33.63;20.03;;;;;;;;;;5049467;28;20514;-71
2021/12/23 08:45:57;;;;;;;26.77;19.67;;;;;;;;;;5049684;28;20457;-70
2021/12/23 08:48:25;;;;;;;37.57;18.77;;;;;;;;;;5049433;28;20623;-69
2021/12/23 08:50:52;;;;;;;39.90;22.07;;;;;;;;;;5049027;28;20941;-69
2021/12/23 08:53:19;;;;;;;24.23;17.13;;;;;;;;;;5049240;28;20455;-70
2021/12/23 08:55:48;;;;;;;45.60;19.40;;;;;;;;;;5038123;28;20968;-70
2021/12/23 08:58:15;;;;;;;40.23;19.10;;;;;;;;;;5029412;28;20500;-70
2021/12/23 09:00:43;;;;;;;33.30;21.20;;;;;;;;;;5029435;28;20495;-71
2021/12/23 09:03:12;;;;;;;33.57;21.50;;;;;;;;;;5029195;28;20458;-69
2021/12/23 09:05:40;;;;;;;33.67;24.17;;;;;;;;;;5029116;28;20465;-70
2021/12/23 09:08:09;;;;;;;36.80;22.93;;;;;;;;;;5029241;28;20516;-69
2021/12/23 09:10:36;;;;;;;41.27;26.67;;;;;;;;;;5029246;28;20478;-69
2021/12/23 09:13:04;;;;;;;38.30;25.83;;;;;;;;;;5029255;28;20873;-70
2021/12/23 09:15:31;;;;;;;33.07;23.50;;;;;;;;;;5029198;28;20508;-68
2021/12/23 09:17:59;;;;;;;37.83;24.27;;;;;;;;;;5028432;28;20482;-69
2021/12/23 09:20:28;;;;;;;43.10;25.20;;;;;;;;;;5028920;28;20516;-71
2021/12/23 09:22:55;;;;;;;37.60;24.20;;;;;;;;;;5029370;28;20459;-70
2021/12/23 09:25:25;;;;;;;38.70;22.60;;;;;;;;;;5029338;28;20812;-70
2021/12/23 09:28:01;;;;;;;40.73;24.30;;;;;;;;;;5029019;28;20492;-70
2021/12/23 09:33:14;;;;;;;32.80;24.50;;;;;;;;;;5029027;28;20460;-69
2021/12/23 09:35:43;;;;;;;36.67;23.37;;;;;;;;;;5028940;28;20454;-69
2021/12/23 09:38:10;;;;;;;44.67;23.17;;;;;;;;;;5029142;28;20449;-69
2021/12/23 09:40:38;;;;;;;33.83;23.17;;;;;;;;;;5028962;28;20525;-69
2021/12/23 09:43:06;;;;;;;36.83;23.47;;;;;;;;;;5028822;28;21260;-69
2021/12/23 09:45:35;;;;;;;39.30;25.20;;;;;;;;;;5028791;28;20870;-70
2021/12/23 09:48:02;;;;;;;38.00;24.80;;;;;;;;;;5029020;28;20946;-69
2021/12/23 09:50:30;;;;;;;36.73;22.90;;;;;;;;;;5028599;28;20513;-69
2021/12/23 09:53:01;;;;;;;29.47;20.83;;;;;;;;;;5028896;28;20804;-69
2021/12/23 09:55:29;;;;;;;26.97;19.27;;;;;;;;;;5028859;28;20457;-69
2021/12/23 09:57:58;;;;;;;36.23;21.20;;;;;;;;;;5028608;28;20462;-69
2021/12/23 10:00:27;;;;;;;28.00;19.80;;;;;;;;;;5028871;28;20992;-70
2021/12/23 10:02:54;;;;;;;29.43;19.27;;;;;;;;;;5028635;28;20507;-70
2021/12/23 10:05:23;;;;;;;28.43;19.33;;;;;;;;;;5032137;28;20453;-69
2021/12/23 10:07:51;;;;;;;25.80;16.70;;;;;;;;;;5032472;28;20494;-68
2021/12/23 10:10:24;;;;;;;24.93;16.30;;;;;;;;;;5032487;28;20544;-70
2021/12/23 10:27:26;;;;;;;30.70;16.50;;;;;;;;;;5031906;28;20519;-70
2021/12/23 10:38:33;;;;;;;25.27;15.90;;;;;;;;;;5031684;28;20952;-70
2021/12/23 10:41:01;;;;;;;26.00;16.13;;;;;;;;;;5032130;28;20475;-70
2021/12/23 10:43:31;;;;;;;25.20;16.43;;;;;;;;;;5031588;28;20453;-71
2021/12/23 10:46:00;;;;;;;23.40;16.40;;;;;;;;;;5031662;28;20522;-70
2021/12/23 10:48:30;;;;;;;23.50;16.50;;;;;;;;;;5031743;28;20493;-70
2021/12/23 10:51:02;;;;;;;25.50;16.60;;;;;;;;;;5031865;28;20588;-70
2021/12/23 10:59:12;;;;;;;22.67;16.00;;;;;;;;;;5031650;28;20432;-70
2021/12/23 11:02:01;;;;;;;30.40;19.27;;;;;;;;;;5031452;28;20470;-70
2021/12/23 11:04:33;;;;;;;27.40;18.90;;;;;;;;;;5031305;28;20783;-70
2021/12/23 11:07:15;;;;;;;24.73;15.77;;;;;;;;;;5031568;28;20454;-70
2021/12/23 11:10:00;;;;;;;23.63;15.40;;;;;;;;;;5031107;28;20577;-70
2021/12/23 11:30:15;;;;;;;24.43;16.57;;;;;;;;;;5030900;28;20833;-70
2021/12/23 11:38:21;;;;;;;24.93;14.30;;;;;;;;;;5013183;28;20991;-70
2021/12/23 11:40:55;;;;;;;16.67;13.63;;;;;;;;;;5030895;28;20838;-70
2021/12/23 11:43:43;;;;;;;26.60;16.10;;;;;;;;;;5030775;28;20468;-70
2021/12/23 11:46:13;;;;;;;20.17;13.77;;;;;;;;;;5030422;28;20450;-71
2021/12/23 11:48:44;;;;;;;27.87;14.40;;;;;;;;;;5030190;28;20487;-70
2021/12/23 11:51:16;;;;;;;23.47;14.30;;;;;;;;;;5030588;28;20478;-69
2021/12/23 11:53:45;;;;;;;22.00;13.80;;;;;;;;;;5030792;28;20458;-70
2021/12/23 11:56:13;;;;;;;19.63;12.87;;;;;;;;;;5029865;28;20457;-71
2021/12/23 11:58:44;;;;;;;25.53;14.30;;;;;;;;;;5030092;28;20811;-70
2021/12/23 12:01:12;;;;;;;22.80;12.70;;;;;;;;;;5030308;28;20506;-70
2021/12/23 12:03:52;;;;;;;19.60;13.60;;;;;;;;;;5030484;28;20454;-70
2021/12/23 12:06:20;;;;;;;20.23;12.33;;;;;;;;;;5030482;28;20824;-70
2021/12/23 12:08:47;;;;;;;18.07;10.87;;;;;;;;;;5030218;28;20509;-70
2021/12/23 12:11:16;;;;;;;20.03;13.23;;;;;;;;;;5029947;28;20520;-70
2021/12/23 12:13:43;;;;;;;24.93;13.80;;;;;;;;;;5030461;28;20481;-71
2021/12/23 12:16:25;;;;;;;20.77;12.50;;;;;;;;;;5030092;28;20554;-70
2021/12/23 12:18:54;;;;;;;21.17;13.20;;;;;;;;;;5030018;28;20450;-70
2021/12/23 12:21:22;;;;;;;17.13;13.13;;;;;;;;;;5029871;28;20486;-70
2021/12/23 12:23:49;;;;;;;23.00;14.73;;;;;;;;;;5029976;28;20450;-69
2021/12/23 12:26:24;;;;;;;22.00;13.30;;;;;;;;;;5029352;28;20509;-72
2021/12/23 12:28:51;;;;;;;22.50;13.33;;;;;;;;;;5030061;28;20552;-71
2021/12/23 12:31:19;;;;;;;22.93;14.63;;;;;;;;;;5029570;28;20808;-71
2021/12/23 12:34:02;;;;;;;23.53;14.97;;;;;;;;;;5030060;28;20455;-70
2021/12/23 12:36:31;;;;;;;26.83;16.20;;;;;;;;;;5030029;28;20455;-71
2021/12/23 12:39:14;;;;;;;18.00;13.40;;;;;;;;;;5029972;28;20446;-70
2021/12/23 12:41:41;;;;;;;24.83;14.93;;;;;;;;;;5029664;28;20518;-70
2021/12/23 12:44:13;;;;;;;23.73;15.70;;;;;;;;;;5028488;28;20454;-70
2021/12/23 12:49:38;;;;;;;21.30;14.00;;;;;;;;;;5027801;28;20489;-71
2021/12/23 12:52:23;;;;;;;20.30;12.70;;;;;;;;;;5029853;28;20471;-72
2021/12/23 12:54:56;;;;;;;25.60;15.33;;;;;;;;;;5029332;28;20932;-72
2021/12/23 12:57:24;;;;;;;22.10;13.27;;;;;;;;;;5029380;28;20454;-71
2021/12/23 12:59:52;;;;;;;31.90;13.27;;;;;;;;;;5029443;28;20982;-71
2021/12/23 13:02:24;;;;;;;20.40;12.07;;;;;;;;;;5029635;28;20982;-74
2021/12/23 13:04:53;;;;;;;18.50;11.77;;;;;;;;;;5029648;28;20477;-70
2021/12/23 13:07:25;;;;;;;20.90;13.27;;;;;;;;;;5029395;28;20461;-72
2021/12/23 13:10:04;;;;;;;22.63;13.63;;;;;;;;;;5029273;28;20569;-73
2021/12/23 13:12:44;;;;;;;23.93;11.80;;;;;;;;;;5029421;28;20524;-73
2021/12/23 13:15:19;;;;;;;18.23;11.60;;;;;;;;;;5029491;28;20653;-71
2021/12/23 13:17:53;;;;;;;18.60;13.10;;;;;;;;;;5028540;28;20496;-72
2021/12/23 13:20:21;;;;;;;20.97;12.27;;;;;;;;;;5029186;28;20817;-71
2021/12/23 13:22:56;;;;;;;17.17;10.90;;;;;;;;;;5029455;28;20455;-73
2021/12/23 13:25:23;;;;;;;16.30;10.73;;;;;;;;;;5029374;28;21124;-71
2021/12/23 13:27:52;;;;;;;22.80;11.77;;;;;;;;;;5028846;28;20816;-71
2021/12/23 13:30:19;;;;;;;20.27;11.33;;;;;;;;;;5029164;28;20493;-72
2021/12/23 13:32:57;;;;;;;19.67;12.90;;;;;;;;;;5029035;28;20458;-73
2021/12/23 13:35:25;;;;;;;19.17;11.77;;;;;;;;;;5029366;28;20461;-70
2021/12/23 13:37:52;;;;;;;17.83;10.57;;;;;;;;;;5029360;28;20459;-71
2021/12/23 13:40:27;;;;;;;19.93;11.43;;;;;;;;;;5032622;28;20457;-73
2021/12/23 13:42:56;;;;;;;19.67;10.87;;;;;;;;;;5033042;28;20446;-71
2021/12/23 13:45:24;;;;;;;18.40;10.07;;;;;;;;;;5033116;28;20524;-72
2021/12/23 13:47:55;;;;;;;17.60;11.47;;;;;;;;;;5033072;28;20609;-71
2021/12/23 13:50:23;;;;;;;17.63;11.60;;;;;;;;;;5032917;28;20491;-71
2021/12/23 13:52:51;;;;;;;24.67;11.50;;;;;;;;;;5032458;28;20908;-72
2021/12/23 13:55:19;;;;;;;18.03;11.00;;;;;;;;;;5032336;28;20940;-73
2021/12/23 13:57:49;;;;;;;16.83;10.27;;;;;;;;;;5032742;28;20931;-72
2021/12/23 14:00:22;;;;;;;15.67;11.83;;;;;;;;;;5032477;28;20499;-70
2021/12/23 14:02:53;;;;;;;16.70;10.37;;;;;;;;;;5032762;28;20794;-74
2021/12/23 14:05:22;;;;;;;17.80;11.60;;;;;;;;;;5032954;28;20454;-73
2021/12/23 14:07:50;;;;;;;19.77;12.67;;;;;;;;;;5032759;28;20451;-74
2021/12/23 14:10:18;;;;;;;18.53;13.20;;;;;;;;;;5032462;28;20490;-71
2021/12/23 14:12:48;;;;;;;16.97;11.80;;;;;;;;;;5032618;28;20462;-71
2021/12/23 14:15:16;;;;;;;18.63;12.70;;;;;;;;;;5032449;28;20544;-73
2021/12/23 14:17:46;;;;;;;21.30;12.93;;;;;;;;;;5031872;28;20493;-73
2021/12/23 14:23:16;;;;;;;17.83;11.00;;;;;;;;;;5032499;28;20425;-73
2021/12/23 14:25:45;;;;;;;18.90;10.70;;;;;;;;;;5032634;28;20478;-74
2021/12/23 14:28:13;;;;;;;17.20;10.80;;;;;;;;;;5032633;28;20453;-74
2021/12/23 14:30:42;;;;;;;15.07;10.10;;;;;;;;;;5032289;28;20551;-72
2021/12/23 14:33:13;;;;;;;17.67;10.20;;;;;;;;;;5032315;28;20526;-73
2021/12/23 14:35:40;;;;;;;18.87;11.53;;;;;;;;;;5032851;28;20445;-76
2021/12/23 14:38:08;;;;;;;18.73;9.33;;;;;;;;;;5032722;28;20463;-75
2021/12/23 14:40:35;;;;;;;15.07;9.93;;;;;;;;;;5032361;28;20484;-72
2021/12/23 14:43:04;;;;;;;13.73;9.07;;;;;;;;;;5032019;28;20454;-72
2021/12/23 14:45:31;;;;;;;22.63;10.83;;;;;;;;;;5032344;28;20955;-74
2021/12/23 14:47:59;;;;;;;15.67;9.47;;;;;;;;;;5031986;28;20459;-75
2021/12/23 14:50:37;;;;;;;16.07;9.70;;;;;;;;;;5031570;28;20493;-71
2021/12/23 14:53:17;;;;;;;17.70;10.93;;;;;;;;;;5032329;28;20448;-75
2021/12/23 14:55:53;;;;;;;17.80;11.70;;;;;;;;;;5031901;28;20469;-72
2021/12/23 14:58:21;;;;;;;21.87;9.73;;;;;;;;;;5031852;28;20461;-76
2021/12/23 15:00:48;;;;;;;16.80;9.43;;;;;;;;;;5031976;28;20474;-76
2021/12/23 15:03:16;;;;;;;21.10;10.40;;;;;;;;;;5032010;28;20807;-72
2021/12/23 15:05:47;;;;;;;16.93;10.53;;;;;;;;;;5032080;28;20457;-76
2021/12/23 15:08:18;;;;;;;18.93;10.37;;;;;;;;;;5031739;28;20455;-72
2021/12/23 15:10:46;;;;;;;21.13;12.87;;;;;;;;;;5031797;28;20859;-73
2021/12/23 15:13:15;;;;;;;20.17;11.80;;;;;;;;;;5030450;28;20954;-72
2021/12/23 15:15:42;;;;;;;18.60;12.30;;;;;;;;;;5031941;28;20450;-75
2021/12/23 15:18:27;;;;;;;19.10;12.80;;;;;;;;;;5031193;28;20520;-70
2021/12/23 15:20:57;;;;;;;23.47;14.40;;;;;;;;;;5031732;28;20561;-73
2021/12/23 15:23:43;;;;;;;21.40;13.70;;;;;;;;;;5038536;28;20491;-69
2021/12/23 15:26:37;;;;;;;25.80;14.70;;;;;;;;;;5037222;28;20468;-73
2021/12/23 15:29:12;;;;;;;23.90;12.73;;;;;;;;;;5014566;28;20456;-71
2021/12/23 15:31:40;;;;;;;27.97;12.17;;;;;;;;;;5033885;28;20540;-72
2021/12/23 15:34:09;;;;;;;19.63;12.10;;;;;;;;;;5031349;28;20470;-73
2021/12/23 15:36:39;;;;;;;18.57;10.20;;;;;;;;;;5031408;28;20507;-75
2021/12/23 15:39:18;;;;;;;23.23;11.80;;;;;;;;;;5030941;28;20459;-76
2021/12/23 15:41:46;;;;;;;22.07;12.63;;;;;;;;;;5031038;28;20511;-75
2021/12/23 15:44:14;;;;;;;17.07;11.20;;;;;;;;;;5031002;28;20514;-75
2021/12/23 15:46:41;;;;;;;23.07;11.40;;;;;;;;;;5031047;28;20457;-75